sensor_id;sensor_type;location;lat;lon;timestamp;temperature;humidity
3860;DHT22;1945;52.036;8.614;2022-07-01T00:01:47;17.40;99.90
3860;DHT22;1945;52.036;8.614;2022-07-01T00:04:15;17.30;99.90
3860;DHT22;1945;52.036;8.614;2022-07-01T00:06:42;17.20;99.90
3860;DHT22;1945;52.036;8.614;2022-07-01T00:09:08;17.40;99.90
3860;DHT22;1945;52.036;8.614;2022-07-01T00:11:35;17.20;99.90
3860;DHT22;1945;52.036;8.614;2022-07-01T00:14:03;17.20;99.90
3860;DHT22;1945;52.036;8.614;2022-07-01T00:16:30;17.10;99.90
3860;DHT22;1945;52.036;8.614;2022-07-01T00:18:57;17.10;99.90
3860;DHT22;1945;52.036;8.614;2022-07-01T00:21:23;17.10;99.90
3860;DHT22;1945;52.036;8.614;2022-07-01T00:23:50;17.20;99.90
3860;DHT22;1945;52.036;8.614;2022-07-01T00:26:17;17.10;99.90
3860;DHT22;1945;52.036;8.614;2022-07-01T00:28:43;17.20;99.90
3860;DHT22;1945;52.036;8.614;2022-07-01T00:31:11;17.10;99.90
3860;DHT22;1945;52.036;8.614;2022-07-01T00:33:38;17.10;99.90
3860;DHT22;1945;52.036;8.614;2022-07-01T00:36:05;17.00;99.90
3860;DHT22;1945;52.036;8.614;2022-07-01T00:38:31;16.80;99.90
3860;DHT22;1945;52.036;8.614;2022-07-01T00:40:58;16.80;99.90
3860;DHT22;1945;52.036;8.614;2022-07-01T00:43:25;16.80;99.90
3860;DHT22;1945;52.036;8.614;2022-07-01T00:45:52;16.80;99.90
3860;DHT22;1945;52.036;8.614;2022-07-01T00:48:22;16.90;99.90
3860;DHT22;1945;52.036;8.614;2022-07-01T00:50:49;16.90;99.90
3860;DHT22;1945;52.036;8.614;2022-07-01T00:53:16;16.80;99.90
3860;DHT22;1945;52.036;8.614;2022-07-01T00:55:43;16.80;99.90
3860;DHT22;1945;52.036;8.614;2022-07-01T00:58:09;16.70;99.90
3860;DHT22;1945;52.036;8.614;2022-07-01T01:00:37;16.80;99.90
3860;DHT22;1945;52.036;8.614;2022-07-01T01:03:05;16.60;99.90
3860;DHT22;1945;52.036;8.614;2022-07-01T01:05:33;16.60;99.90
3860;DHT22;1945;52.036;8.614;2022-07-01T01:08:00;16.60;99.90
3860;DHT22;1945;52.036;8.614;2022-07-01T01:10:27;16.50;99.90
3860;DHT22;1945;52.036;8.614;2022-07-01T01:12:55;16.60;99.90
3860;DHT22;1945;52.036;8.614;2022-07-01T01:15:22;16.60;99.90
3860;DHT22;1945;52.036;8.614;2022-07-01T01:17:48;16.40;99.90
3860;DHT22;1945;52.036;8.614;2022-07-01T01:20:17;16.30;99.90
3860;DHT22;1945;52.036;8.614;2022-07-01T01:22:46;16.30;99.90
3860;DHT22;1945;52.036;8.614;2022-07-01T01:25:14;16.20;99.90
3860;DHT22;1945;52.036;8.614;2022-07-01T01:27:41;16.30;99.90
3860;DHT22;1945;52.036;8.614;2022-07-01T01:30:09;16.30;99.90
3860;DHT22;1945;52.036;8.614;2022-07-01T01:32:38;16.30;99.90
3860;DHT22;1945;52.036;8.614;2022-07-01T01:35:06;16.30;99.90
3860;DHT22;1945;52.036;8.614;2022-07-01T01:37:33;16.30;99.90
3860;DHT22;1945;52.036;8.614;2022-07-01T01:40:01;16.30;99.90
3860;DHT22;1945;52.036;8.614;2022-07-01T01:42:28;16.40;99.90
3860;DHT22;1945;52.036;8.614;2022-07-01T01:44:56;16.40;99.90
3860;DHT22;1945;52.036;8.614;2022-07-01T01:47:23;16.30;99.90
3860;DHT22;1945;52.036;8.614;2022-07-01T01:49:49;16.30;99.90
3860;DHT22;1945;52.036;8.614;2022-07-01T01:52:16;16.30;99.90
3860;DHT22;1945;52.036;8.614;2022-07-01T01:54:43;16.40;99.90
3860;DHT22;1945;52.036;8.614;2022-07-01T01:57:11;16.30;99.90
3860;DHT22;1945;52.036;8.614;2022-07-01T01:59:38;16.40;99.90
3860;DHT22;1945;52.036;8.614;2022-07-01T02:02:04;16.20;99.90
3860;DHT22;1945;52.036;8.614;2022-07-01T02:04:31;16.20;99.90
3860;DHT22;1945;52.036;8.614;2022-07-01T02:06:58;16.20;99.90
3860;DHT22;1945;52.036;8.614;2022-07-01T02:09:25;16.20;99.90
3860;DHT22;1945;52.036;8.614;2022-07-01T02:11:53;16.10;99.90
3860;DHT22;1945;52.036;8.614;2022-07-01T02:14:21;16.30;99.90
3860;DHT22;1945;52.036;8.614;2022-07-01T02:16:48;16.20;99.90
3860;DHT22;1945;52.036;8.614;2022-07-01T02:19:15;16.30;99.90
3860;DHT22;1945;52.036;8.614;2022-07-01T02:21:41;16.30;99.90
3860;DHT22;1945;52.036;8.614;2022-07-01T02:24:08;16.30;99.90
3860;DHT22;1945;52.036;8.614;2022-07-01T02:26:35;16.20;99.90
3860;DHT22;1945;52.036;8.614;2022-07-01T02:29:02;16.20;99.90
3860;DHT22;1945;52.036;8.614;2022-07-01T02:31:30;16.20;99.90
3860;DHT22;1945;52.036;8.614;2022-07-01T02:33:57;16.10;99.90
3860;DHT22;1945;52.036;8.614;2022-07-01T02:36:24;16.00;99.90
3860;DHT22;1945;52.036;8.614;2022-07-01T02:38:51;16.10;99.90
3860;DHT22;1945;52.036;8.614;2022-07-01T02:41:17;16.10;99.90
3860;DHT22;1945;52.036;8.614;2022-07-01T02:43:44;16.10;99.90
3860;DHT22;1945;52.036;8.614;2022-07-01T02:46:11;16.10;99.90
3860;DHT22;1945;52.036;8.614;2022-07-01T02:48:39;16.20;99.90
3860;DHT22;1945;52.036;8.614;2022-07-01T02:51:05;16.20;99.90
3860;DHT22;1945;52.036;8.614;2022-07-01T02:53:32;16.10;99.90
3860;DHT22;1945;52.036;8.614;2022-07-01T02:55:59;16.10;99.90
3860;DHT22;1945;52.036;8.614;2022-07-01T02:58:25;16.10;99.90
3860;DHT22;1945;52.036;8.614;2022-07-01T03:00:52;16.20;99.90
3860;DHT22;1945;52.036;8.614;2022-07-01T03:03:19;16.10;99.90
3860;DHT22;1945;52.036;8.614;2022-07-01T03:05:47;16.30;99.90
3860;DHT22;1945;52.036;8.614;2022-07-01T03:08:14;16.10;99.90
3860;DHT22;1945;52.036;8.614;2022-07-01T03:10:41;16.10;99.90
3860;DHT22;1945;52.036;8.614;2022-07-01T03:13:08;16.10;99.90
3860;DHT22;1945;52.036;8.614;2022-07-01T03:15:34;16.10;99.90
3860;DHT22;1945;52.036;8.614;2022-07-01T03:18:01;16.10;99.90
3860;DHT22;1945;52.036;8.614;2022-07-01T03:20:28;16.10;99.90
3860;DHT22;1945;52.036;8.614;2022-07-01T03:22:56;16.10;99.90
3860;DHT22;1945;52.036;8.614;2022-07-01T03:25:22;15.90;99.90
3860;DHT22;1945;52.036;8.614;2022-07-01T03:27:49;15.90;99.90
3860;DHT22;1945;52.036;8.614;2022-07-01T03:30:16;15.90;99.90
3860;DHT22;1945;52.036;8.614;2022-07-01T03:32:43;15.90;99.90
3860;DHT22;1945;52.036;8.614;2022-07-01T03:35:10;15.90;99.90
3860;DHT22;1945;52.036;8.614;2022-07-01T03:37:56;15.90;99.90
3860;DHT22;1945;52.036;8.614;2022-07-01T03:40:23;15.90;99.90
3860;DHT22;1945;52.036;8.614;2022-07-01T03:42:50;15.80;99.90
3860;DHT22;1945;52.036;8.614;2022-07-01T03:45:17;15.90;99.90
3860;DHT22;1945;52.036;8.614;2022-07-01T03:47:46;15.90;99.90
3860;DHT22;1945;52.036;8.614;2022-07-01T03:50:14;15.90;99.90
3860;DHT22;1945;52.036;8.614;2022-07-01T03:52:41;15.90;99.90
3860;DHT22;1945;52.036;8.614;2022-07-01T03:55:10;15.40;99.90
3860;DHT22;1945;52.036;8.614;2022-07-01T03:57:36;16.00;99.90
3860;DHT22;1945;52.036;8.614;2022-07-01T04:00:04;16.00;99.90
3860;DHT22;1945;52.036;8.614;2022-07-01T04:02:31;15.90;99.90
3860;DHT22;1945;52.036;8.614;2022-07-01T04:04:58;15.90;99.90
3860;DHT22;1945;52.036;8.614;2022-07-01T04:07:25;15.90;99.90
3860;DHT22;1945;52.036;8.614;2022-07-01T04:09:53;15.90;99.90
3860;DHT22;1945;52.036;8.614;2022-07-01T04:12:21;16.00;99.90
3860;DHT22;1945;52.036;8.614;2022-07-01T04:14:48;15.90;99.90
3860;DHT22;1945;52.036;8.614;2022-07-01T04:17:14;15.80;99.90
3860;DHT22;1945;52.036;8.614;2022-07-01T04:19:41;15.90;99.90
3860;DHT22;1945;52.036;8.614;2022-07-01T04:22:08;15.90;99.90
3860;DHT22;1945;52.036;8.614;2022-07-01T04:24:52;15.90;99.90
3860;DHT22;1945;52.036;8.614;2022-07-01T04:27:20;15.90;99.90
3860;DHT22;1945;52.036;8.614;2022-07-01T04:29:47;15.70;99.90
3860;DHT22;1945;52.036;8.614;2022-07-01T04:32:14;15.80;99.90
3860;DHT22;1945;52.036;8.614;2022-07-01T04:34:41;15.70;99.90
3860;DHT22;1945;52.036;8.614;2022-07-01T04:37:08;15.80;99.90
3860;DHT22;1945;52.036;8.614;2022-07-01T04:39:34;15.70;99.90
3860;DHT22;1945;52.036;8.614;2022-07-01T04:42:01;15.80;99.90
3860;DHT22;1945;52.036;8.614;2022-07-01T04:44:29;15.90;99.90
3860;DHT22;1945;52.036;8.614;2022-07-01T04:46:56;15.90;99.90
3860;DHT22;1945;52.036;8.614;2022-07-01T04:49:23;15.80;99.90
3860;DHT22;1945;52.036;8.614;2022-07-01T04:51:49;15.70;99.90
3860;DHT22;1945;52.036;8.614;2022-07-01T04:54:16;15.80;99.90
3860;DHT22;1945;52.036;8.614;2022-07-01T04:56:44;15.80;99.90
3860;DHT22;1945;52.036;8.614;2022-07-01T04:59:11;15.80;99.90
3860;DHT22;1945;52.036;8.614;2022-07-01T05:01:40;15.80;99.90
3860;DHT22;1945;52.036;8.614;2022-07-01T05:04:06;15.90;99.90
3860;DHT22;1945;52.036;8.614;2022-07-01T05:06:34;15.90;99.90
3860;DHT22;1945;52.036;8.614;2022-07-01T05:09:01;16.00;99.90
3860;DHT22;1945;52.036;8.614;2022-07-01T05:11:28;16.00;99.90
3860;DHT22;1945;52.036;8.614;2022-07-01T05:13:55;16.00;99.90
3860;DHT22;1945;52.036;8.614;2022-07-01T05:16:21;15.90;99.90
3860;DHT22;1945;52.036;8.614;2022-07-01T05:18:49;15.90;99.90
3860;DHT22;1945;52.036;8.614;2022-07-01T05:21:34;15.90;99.90
3860;DHT22;1945;52.036;8.614;2022-07-01T05:24:18;15.90;99.90
3860;DHT22;1945;52.036;8.614;2022-07-01T05:26:45;15.80;99.90
3860;DHT22;1945;52.036;8.614;2022-07-01T05:29:11;15.80;99.90
3860;DHT22;1945;52.036;8.614;2022-07-01T05:31:38;15.80;99.90
3860;DHT22;1945;52.036;8.614;2022-07-01T05:34:06;16.00;99.90
3860;DHT22;1945;52.036;8.614;2022-07-01T05:36:33;15.90;99.90
3860;DHT22;1945;52.036;8.614;2022-07-01T05:39:00;15.90;99.90
3860;DHT22;1945;52.036;8.614;2022-07-01T05:41:27;16.10;99.90
3860;DHT22;1945;52.036;8.614;2022-07-01T05:43:54;15.90;99.90
3860;DHT22;1945;52.036;8.614;2022-07-01T05:46:21;15.90;99.90
3860;DHT22;1945;52.036;8.614;2022-07-01T05:48:47;15.90;99.90
3860;DHT22;1945;52.036;8.614;2022-07-01T05:51:16;16.00;99.90
3860;DHT22;1945;52.036;8.614;2022-07-01T05:53:42;15.90;99.90
3860;DHT22;1945;52.036;8.614;2022-07-01T05:56:10;15.90;99.90
3860;DHT22;1945;52.036;8.614;2022-07-01T05:58:36;16.00;99.90
3860;DHT22;1945;52.036;8.614;2022-07-01T06:01:04;15.90;99.90
3860;DHT22;1945;52.036;8.614;2022-07-01T06:03:30;16.00;99.90
3860;DHT22;1945;52.036;8.614;2022-07-01T06:05:57;16.00;99.90
3860;DHT22;1945;52.036;8.614;2022-07-01T06:08:25;16.00;99.90
3860;DHT22;1945;52.036;8.614;2022-07-01T06:10:52;16.00;99.90
3860;DHT22;1945;52.036;8.614;2022-07-01T06:13:18;16.00;99.90
3860;DHT22;1945;52.036;8.614;2022-07-01T06:15:45;16.10;99.90
3860;DHT22;1945;52.036;8.614;2022-07-01T06:18:13;16.20;99.90
3860;DHT22;1945;52.036;8.614;2022-07-01T06:20:40;16.20;99.90
3860;DHT22;1945;52.036;8.614;2022-07-01T06:23:06;16.20;99.90
3860;DHT22;1945;52.036;8.614;2022-07-01T06:25:34;16.30;99.90
3860;DHT22;1945;52.036;8.614;2022-07-01T06:28:01;16.20;99.90
3860;DHT22;1945;52.036;8.614;2022-07-01T06:30:28;16.10;99.90
3860;DHT22;1945;52.036;8.614;2022-07-01T06:32:55;16.30;99.90
3860;DHT22;1945;52.036;8.614;2022-07-01T06:35:22;16.30;99.90
3860;DHT22;1945;52.036;8.614;2022-07-01T06:37:48;16.30;99.90
3860;DHT22;1945;52.036;8.614;2022-07-01T06:40:15;16.30;99.90
3860;DHT22;1945;52.036;8.614;2022-07-01T06:42:43;16.30;99.90
3860;DHT22;1945;52.036;8.614;2022-07-01T06:45:10;16.30;99.90
3860;DHT22;1945;52.036;8.614;2022-07-01T06:47:37;16.20;99.90
3860;DHT22;1945;52.036;8.614;2022-07-01T06:50:05;16.30;99.90
3860;DHT22;1945;52.036;8.614;2022-07-01T06:52:31;16.40;99.90
3860;DHT22;1945;52.036;8.614;2022-07-01T06:54:58;16.40;99.90
3860;DHT22;1945;52.036;8.614;2022-07-01T06:57:26;16.50;99.90
3860;DHT22;1945;52.036;8.614;2022-07-01T06:59:54;16.50;99.90
3860;DHT22;1945;52.036;8.614;2022-07-01T07:02:21;16.50;99.90
3860;DHT22;1945;52.036;8.614;2022-07-01T07:04:47;16.50;99.90
3860;DHT22;1945;52.036;8.614;2022-07-01T07:07:14;16.60;96.20
3860;DHT22;1945;52.036;8.614;2022-07-01T07:09:41;16.60;99.10
3860;DHT22;1945;52.036;8.614;2022-07-01T07:12:08;16.50;99.50
3860;DHT22;1945;52.036;8.614;2022-07-01T07:14:35;16.60;29.40
3860;DHT22;1945;52.036;8.614;2022-07-01T07:17:03;16.60;99.90
3860;DHT22;1945;52.036;8.614;2022-07-01T07:19:30;16.60;92.80
3860;DHT22;1945;52.036;8.614;2022-07-01T07:21:57;16.50;99.90
3860;DHT22;1945;52.036;8.614;2022-07-01T07:24:23;16.60;29.30
3860;DHT22;1945;52.036;8.614;2022-07-01T07:26:50;16.60;1.00
3860;DHT22;1945;52.036;8.614;2022-07-01T07:29:17;16.80;1.00
3860;DHT22;1945;52.036;8.614;2022-07-01T07:31:43;17.00;1.00
3860;DHT22;1945;52.036;8.614;2022-07-01T07:34:11;16.90;1.00
3860;DHT22;1945;52.036;8.614;2022-07-01T07:36:38;16.90;1.00
3860;DHT22;1945;52.036;8.614;2022-07-01T07:39:05;17.00;1.00
3860;DHT22;1945;52.036;8.614;2022-07-01T07:41:31;17.10;1.00
3860;DHT22;1945;52.036;8.614;2022-07-01T07:43:58;17.20;1.00
3860;DHT22;1945;52.036;8.614;2022-07-01T07:46:25;17.30;1.00
3860;DHT22;1945;52.036;8.614;2022-07-01T07:48:51;17.20;1.00
3860;DHT22;1945;52.036;8.614;2022-07-01T07:51:19;17.20;1.00
3860;DHT22;1945;52.036;8.614;2022-07-01T07:53:48;17.20;1.00
3860;DHT22;1945;52.036;8.614;2022-07-01T07:56:15;17.30;1.00
3860;DHT22;1945;52.036;8.614;2022-07-01T07:58:42;17.70;1.00
3860;DHT22;1945;52.036;8.614;2022-07-01T08:01:09;17.80;1.00
3860;DHT22;1945;52.036;8.614;2022-07-01T08:03:36;17.80;1.00
3860;DHT22;1945;52.036;8.614;2022-07-01T08:06:03;17.60;99.90
3860;DHT22;1945;52.036;8.614;2022-07-01T08:08:31;17.70;1.00
3860;DHT22;1945;52.036;8.614;2022-07-01T08:10:58;17.40;99.90
3860;DHT22;1945;52.036;8.614;2022-07-01T08:13:25;17.40;1.00
3860;DHT22;1945;52.036;8.614;2022-07-01T08:15:52;17.30;1.00
3860;DHT22;1945;52.036;8.614;2022-07-01T08:18:18;17.20;1.00
3860;DHT22;1945;52.036;8.614;2022-07-01T08:20:45;17.10;1.00
3860;DHT22;1945;52.036;8.614;2022-07-01T08:23:12;17.00;1.00
3860;DHT22;1945;52.036;8.614;2022-07-01T08:25:40;17.20;1.00
3860;DHT22;1945;52.036;8.614;2022-07-01T08:28:07;17.10;99.90
3860;DHT22;1945;52.036;8.614;2022-07-01T08:30:34;17.10;1.00
3860;DHT22;1945;52.036;8.614;2022-07-01T08:33:01;17.40;1.00
3860;DHT22;1945;52.036;8.614;2022-07-01T08:35:28;17.40;99.90
3860;DHT22;1945;52.036;8.614;2022-07-01T08:37:54;17.40;1.00
3860;DHT22;1945;52.036;8.614;2022-07-01T08:40:24;17.40;99.90
3860;DHT22;1945;52.036;8.614;2022-07-01T08:42:55;17.40;99.90
3860;DHT22;1945;52.036;8.614;2022-07-01T08:45:22;17.20;99.90
3860;DHT22;1945;52.036;8.614;2022-07-01T08:47:50;17.20;99.90
3860;DHT22;1945;52.036;8.614;2022-07-01T08:50:17;17.10;99.90
3860;DHT22;1945;52.036;8.614;2022-07-01T08:52:44;17.30;99.90
3860;DHT22;1945;52.036;8.614;2022-07-01T08:55:11;17.30;99.90
3860;DHT22;1945;52.036;8.614;2022-07-01T08:57:38;17.40;99.90
3860;DHT22;1945;52.036;8.614;2022-07-01T09:00:07;17.50;99.90
3860;DHT22;1945;52.036;8.614;2022-07-01T09:02:52;17.60;99.90
3860;DHT22;1945;52.036;8.614;2022-07-01T09:05:20;17.40;99.90
3860;DHT22;1945;52.036;8.614;2022-07-01T09:07:48;17.50;99.90
3860;DHT22;1945;52.036;8.614;2022-07-01T09:10:16;17.50;99.90
3860;DHT22;1945;52.036;8.614;2022-07-01T09:12:44;17.50;77.40
3860;DHT22;1945;52.036;8.614;2022-07-01T09:15:24;17.50;99.90
3860;DHT22;1945;52.036;8.614;2022-07-01T09:17:52;17.70;58.80
3860;DHT22;1945;52.036;8.614;2022-07-01T09:20:24;17.70;63.90
3860;DHT22;1945;52.036;8.614;2022-07-01T09:23:02;17.80;21.10
3860;DHT22;1945;52.036;8.614;2022-07-01T09:25:31;18.10;10.10
3860;DHT22;1945;52.036;8.614;2022-07-01T09:28:05;18.20;1.00
3860;DHT22;1945;52.036;8.614;2022-07-01T09:30:34;18.20;1.00
3860;DHT22;1945;52.036;8.614;2022-07-01T09:33:08;18.30;1.00
3860;DHT22;1945;52.036;8.614;2022-07-01T09:35:36;18.40;1.00
3860;DHT22;1945;52.036;8.614;2022-07-01T09:38:04;18.50;1.00
3860;DHT22;1945;52.036;8.614;2022-07-01T09:40:53;18.50;1.00
3860;DHT22;1945;52.036;8.614;2022-07-01T09:43:22;18.70;1.00
3860;DHT22;1945;52.036;8.614;2022-07-01T09:45:56;18.90;99.90
3860;DHT22;1945;52.036;8.614;2022-07-01T09:48:25;19.30;1.00
3860;DHT22;1945;52.036;8.614;2022-07-01T09:50:52;19.70;99.90
3860;DHT22;1945;52.036;8.614;2022-07-01T09:53:20;19.50;99.90
3860;DHT22;1945;52.036;8.614;2022-07-01T09:55:46;19.30;99.90
3860;DHT22;1945;52.036;8.614;2022-07-01T09:58:13;19.60;91.50
3860;DHT22;1945;52.036;8.614;2022-07-01T10:00:41;19.50;1.00
3860;DHT22;1945;52.036;8.614;2022-07-01T10:03:10;19.80;99.90
3860;DHT22;1945;52.036;8.614;2022-07-01T10:05:44;20.10;87.20
3860;DHT22;1945;52.036;8.614;2022-07-01T10:08:30;20.40;1.00
3860;DHT22;1945;52.036;8.614;2022-07-01T10:11:14;20.50;1.00
3860;DHT22;1945;52.036;8.614;2022-07-01T10:13:45;20.50;1.00
3860;DHT22;1945;52.036;8.614;2022-07-01T10:16:13;20.90;1.00
3860;DHT22;1945;52.036;8.614;2022-07-01T10:18:41;20.80;27.30
3860;DHT22;1945;52.036;8.614;2022-07-01T10:21:08;21.00;99.90
3860;DHT22;1945;52.036;8.614;2022-07-01T10:23:38;21.30;99.90
3860;DHT22;1945;52.036;8.614;2022-07-01T10:26:06;21.30;1.00
3860;DHT22;1945;52.036;8.614;2022-07-01T10:28:40;21.00;1.00
3860;DHT22;1945;52.036;8.614;2022-07-01T10:31:10;20.70;1.00
3860;DHT22;1945;52.036;8.614;2022-07-01T10:33:46;20.80;13.80
3860;DHT22;1945;52.036;8.614;2022-07-01T10:39:15;20.90;1.00
3860;DHT22;1945;52.036;8.614;2022-07-01T10:42:01;21.10;49.10
3860;DHT22;1945;52.036;8.614;2022-07-01T10:44:29;21.10;1.00
3860;DHT22;1945;52.036;8.614;2022-07-01T10:47:06;21.20;1.00
3860;DHT22;1945;52.036;8.614;2022-07-01T10:49:54;21.50;1.00
3860;DHT22;1945;52.036;8.614;2022-07-01T10:52:21;21.60;1.00
3860;DHT22;1945;52.036;8.614;2022-07-01T10:54:50;21.70;99.90
3860;DHT22;1945;52.036;8.614;2022-07-01T10:57:25;21.70;1.00
3860;DHT22;1945;52.036;8.614;2022-07-01T10:59:53;21.90;99.90
3860;DHT22;1945;52.036;8.614;2022-07-01T11:02:24;22.00;1.00
3860;DHT22;1945;52.036;8.614;2022-07-01T11:04:54;21.80;1.00
3860;DHT22;1945;52.036;8.614;2022-07-01T11:07:24;22.10;1.00
3860;DHT22;1945;52.036;8.614;2022-07-01T11:09:51;21.90;99.90
3860;DHT22;1945;52.036;8.614;2022-07-01T11:12:19;21.50;1.00
3860;DHT22;1945;52.036;8.614;2022-07-01T11:14:47;21.10;1.00
3860;DHT22;1945;52.036;8.614;2022-07-01T11:17:14;21.00;1.00
3860;DHT22;1945;52.036;8.614;2022-07-01T11:19:44;21.10;8.30
3860;DHT22;1945;52.036;8.614;2022-07-01T11:22:18;21.00;1.00
3860;DHT22;1945;52.036;8.614;2022-07-01T11:24:45;20.60;1.00
3860;DHT22;1945;52.036;8.614;2022-07-01T11:27:12;20.30;1.00
3860;DHT22;1945;52.036;8.614;2022-07-01T11:29:39;20.20;1.00
3860;DHT22;1945;52.036;8.614;2022-07-01T11:32:06;20.10;1.00
3860;DHT22;1945;52.036;8.614;2022-07-01T11:34:36;19.90;99.90
3860;DHT22;1945;52.036;8.614;2022-07-01T11:37:09;19.90;99.90
3860;DHT22;1945;52.036;8.614;2022-07-01T11:40:05;19.90;1.00
3860;DHT22;1945;52.036;8.614;2022-07-01T11:42:33;19.90;99.90
3860;DHT22;1945;52.036;8.614;2022-07-01T11:45:00;20.00;1.00
3860;DHT22;1945;52.036;8.614;2022-07-01T11:47:27;20.20;99.90
3860;DHT22;1945;52.036;8.614;2022-07-01T11:49:54;20.40;99.90
3860;DHT22;1945;52.036;8.614;2022-07-01T11:52:22;20.40;99.90
3860;DHT22;1945;52.036;8.614;2022-07-01T11:54:49;20.50;99.90
3860;DHT22;1945;52.036;8.614;2022-07-01T11:57:20;20.80;99.90
3860;DHT22;1945;52.036;8.614;2022-07-01T11:59:49;20.70;1.00
3860;DHT22;1945;52.036;8.614;2022-07-01T12:02:18;20.80;84.80
3860;DHT22;1945;52.036;8.614;2022-07-01T12:04:45;20.60;1.00
3860;DHT22;1945;52.036;8.614;2022-07-01T12:07:13;20.70;99.90
3860;DHT22;1945;52.036;8.614;2022-07-01T12:09:41;20.90;99.90
3860;DHT22;1945;52.036;8.614;2022-07-01T12:12:15;20.80;99.90
3860;DHT22;1945;52.036;8.614;2022-07-01T12:14:50;20.80;99.90
3860;DHT22;1945;52.036;8.614;2022-07-01T12:17:17;20.60;99.90
3860;DHT22;1945;52.036;8.614;2022-07-01T12:19:45;20.50;89.50
3860;DHT22;1945;52.036;8.614;2022-07-01T12:22:15;20.60;99.90
3860;DHT22;1945;52.036;8.614;2022-07-01T12:24:43;20.70;17.10
3860;DHT22;1945;52.036;8.614;2022-07-01T12:27:10;20.90;1.00
3860;DHT22;1945;52.036;8.614;2022-07-01T12:29:53;20.70;1.00
3860;DHT22;1945;52.036;8.614;2022-07-01T12:32:21;20.50;1.00
3860;DHT22;1945;52.036;8.614;2022-07-01T12:34:51;20.50;1.00
3860;DHT22;1945;52.036;8.614;2022-07-01T12:37:19;20.60;99.90
3860;DHT22;1945;52.036;8.614;2022-07-01T12:39:48;20.70;1.00
3860;DHT22;1945;52.036;8.614;2022-07-01T12:42:26;20.80;99.90
3860;DHT22;1945;52.036;8.614;2022-07-01T12:44:55;21.00;1.00
3860;DHT22;1945;52.036;8.614;2022-07-01T12:47:25;21.50;1.00
3860;DHT22;1945;52.036;8.614;2022-07-01T12:50:08;21.50;99.90
3860;DHT22;1945;52.036;8.614;2022-07-01T12:52:35;21.90;99.90
3860;DHT22;1945;52.036;8.614;2022-07-01T12:55:12;21.90;99.90
3860;DHT22;1945;52.036;8.614;2022-07-01T12:57:40;21.90;99.90
3860;DHT22;1945;52.036;8.614;2022-07-01T13:00:08;21.90;99.90
3860;DHT22;1945;52.036;8.614;2022-07-01T13:02:35;21.70;99.90
3860;DHT22;1945;52.036;8.614;2022-07-01T13:05:02;21.70;89.50
3860;DHT22;1945;52.036;8.614;2022-07-01T13:07:29;21.90;47.20
3860;DHT22;1945;52.036;8.614;2022-07-01T13:09:55;21.90;90.30
3860;DHT22;1945;52.036;8.614;2022-07-01T13:12:22;22.00;99.90
3860;DHT22;1945;52.036;8.614;2022-07-01T13:14:49;22.00;1.00
3860;DHT22;1945;52.036;8.614;2022-07-01T13:17:17;21.80;1.00
3860;DHT22;1945;52.036;8.614;2022-07-01T13:19:44;22.10;1.00
3860;DHT22;1945;52.036;8.614;2022-07-01T13:22:10;22.40;3.90
3860;DHT22;1945;52.036;8.614;2022-07-01T13:24:37;22.80;1.00
3860;DHT22;1945;52.036;8.614;2022-07-01T13:27:04;22.80;1.00
3860;DHT22;1945;52.036;8.614;2022-07-01T13:29:31;22.40;1.00
3860;DHT22;1945;52.036;8.614;2022-07-01T13:31:57;22.40;1.00
3860;DHT22;1945;52.036;8.614;2022-07-01T13:34:26;22.30;1.00
3860;DHT22;1945;52.036;8.614;2022-07-01T13:36:53;22.20;1.00
3860;DHT22;1945;52.036;8.614;2022-07-01T13:39:19;22.30;1.00
3860;DHT22;1945;52.036;8.614;2022-07-01T13:41:46;22.20;1.00
3860;DHT22;1945;52.036;8.614;2022-07-01T13:44:13;22.10;1.00
3860;DHT22;1945;52.036;8.614;2022-07-01T13:46:40;22.10;1.00
3860;DHT22;1945;52.036;8.614;2022-07-01T13:49:07;22.00;1.00
3860;DHT22;1945;52.036;8.614;2022-07-01T13:51:35;21.90;1.00
3860;DHT22;1945;52.036;8.614;2022-07-01T13:54:02;21.80;1.00
3860;DHT22;1945;52.036;8.614;2022-07-01T13:56:28;22.00;1.00
3860;DHT22;1945;52.036;8.614;2022-07-01T13:58:55;22.00;1.00
3860;DHT22;1945;52.036;8.614;2022-07-01T14:01:22;22.20;1.00
3860;DHT22;1945;52.036;8.614;2022-07-01T14:03:49;22.00;1.00
3860;DHT22;1945;52.036;8.614;2022-07-01T14:06:17;22.10;1.00
3860;DHT22;1945;52.036;8.614;2022-07-01T14:08:45;22.30;1.00
3860;DHT22;1945;52.036;8.614;2022-07-01T14:11:12;22.80;1.00
3860;DHT22;1945;52.036;8.614;2022-07-01T14:13:39;23.20;1.00
3860;DHT22;1945;52.036;8.614;2022-07-01T14:16:07;22.90;1.00
3860;DHT22;1945;52.036;8.614;2022-07-01T14:18:34;22.80;1.00
3860;DHT22;1945;52.036;8.614;2022-07-01T14:21:01;22.50;1.00
3860;DHT22;1945;52.036;8.614;2022-07-01T14:23:28;22.50;1.00
3860;DHT22;1945;52.036;8.614;2022-07-01T14:25:56;22.30;1.00
3860;DHT22;1945;52.036;8.614;2022-07-01T14:28:23;22.60;1.00
3860;DHT22;1945;52.036;8.614;2022-07-01T14:30:50;22.80;1.00
3860;DHT22;1945;52.036;8.614;2022-07-01T14:33:17;23.10;1.00
3860;DHT22;1945;52.036;8.614;2022-07-01T14:35:44;23.40;1.00
3860;DHT22;1945;52.036;8.614;2022-07-01T14:38:11;23.30;1.00
3860;DHT22;1945;52.036;8.614;2022-07-01T14:40:39;22.90;1.00
3860;DHT22;1945;52.036;8.614;2022-07-01T14:43:07;22.70;1.00
3860;DHT22;1945;52.036;8.614;2022-07-01T14:45:34;23.10;1.00
3860;DHT22;1945;52.036;8.614;2022-07-01T14:48:01;22.70;1.00
3860;DHT22;1945;52.036;8.614;2022-07-01T14:50:27;22.40;1.00
3860;DHT22;1945;52.036;8.614;2022-07-01T14:52:55;22.30;1.00
3860;DHT22;1945;52.036;8.614;2022-07-01T14:55:22;22.20;1.00
3860;DHT22;1945;52.036;8.614;2022-07-01T14:57:49;22.10;1.00
3860;DHT22;1945;52.036;8.614;2022-07-01T15:00:17;21.90;1.00
3860;DHT22;1945;52.036;8.614;2022-07-01T15:02:44;22.10;1.00
3860;DHT22;1945;52.036;8.614;2022-07-01T15:05:10;22.40;1.00
3860;DHT22;1945;52.036;8.614;2022-07-01T15:07:37;22.40;1.00
3860;DHT22;1945;52.036;8.614;2022-07-01T15:10:05;22.40;1.00
3860;DHT22;1945;52.036;8.614;2022-07-01T15:12:32;22.60;1.00
3860;DHT22;1945;52.036;8.614;2022-07-01T15:14:59;22.90;1.00
3860;DHT22;1945;52.036;8.614;2022-07-01T15:17:27;23.10;1.00
3860;DHT22;1945;52.036;8.614;2022-07-01T15:19:54;22.80;1.00
3860;DHT22;1945;52.036;8.614;2022-07-01T15:22:20;22.70;1.00
3860;DHT22;1945;52.036;8.614;2022-07-01T15:24:47;22.60;1.00
3860;DHT22;1945;52.036;8.614;2022-07-01T15:27:14;22.50;1.00
3860;DHT22;1945;52.036;8.614;2022-07-01T15:29:41;22.70;1.00
3860;DHT22;1945;52.036;8.614;2022-07-01T15:32:08;22.70;1.00
3860;DHT22;1945;52.036;8.614;2022-07-01T15:34:36;22.60;1.00
3860;DHT22;1945;52.036;8.614;2022-07-01T15:37:03;22.60;1.00
3860;DHT22;1945;52.036;8.614;2022-07-01T15:39:30;22.50;1.00
3860;DHT22;1945;52.036;8.614;2022-07-01T15:41:57;22.50;1.00
3860;DHT22;1945;52.036;8.614;2022-07-01T15:44:28;22.80;1.00
3860;DHT22;1945;52.036;8.614;2022-07-01T15:46:55;22.80;1.00
3860;DHT22;1945;52.036;8.614;2022-07-01T15:49:21;22.60;1.00
3860;DHT22;1945;52.036;8.614;2022-07-01T15:51:49;22.70;1.00
3860;DHT22;1945;52.036;8.614;2022-07-01T15:54:16;22.90;1.00
3860;DHT22;1945;52.036;8.614;2022-07-01T15:56:43;22.90;1.00
3860;DHT22;1945;52.036;8.614;2022-07-01T15:59:10;22.80;1.00
3860;DHT22;1945;52.036;8.614;2022-07-01T16:01:36;22.70;1.00
3860;DHT22;1945;52.036;8.614;2022-07-01T16:04:03;22.50;1.00
3860;DHT22;1945;52.036;8.614;2022-07-01T16:06:30;22.60;1.00
3860;DHT22;1945;52.036;8.614;2022-07-01T16:09:00;22.60;1.00
3860;DHT22;1945;52.036;8.614;2022-07-01T16:11:28;22.60;1.00
3860;DHT22;1945;52.036;8.614;2022-07-01T16:13:56;22.60;1.00
3860;DHT22;1945;52.036;8.614;2022-07-01T16:16:24;22.60;1.00